sensor_id;sensor_type;location;lat;lon;timestamp;pressure;altitude;pressure_sealevel;temperature;humidity
72465;BME280;60471;52.150;4.508;2023-05-12T00:00:08;101527.66;;;13.77;79.98
72465;BME280;60471;52.150;4.508;2023-05-12T00:02:35;101525.25;;;13.90;79.52
72465;BME280;60471;52.150;4.508;2023-05-12T00:05:01;101530.25;;;13.96;78.24
72465;BME280;60471;52.150;4.508;2023-05-12T00:07:28;101528.13;;;13.85;79.20
72465;BME280;60471;52.150;4.508;2023-05-12T00:09:55;101527.19;;;13.86;78.99
72465;BME280;60471;52.150;4.508;2023-05-12T00:12:21;101524.53;;;13.86;79.12
72465;BME280;60471;52.150;4.508;2023-05-12T00:14:47;101529.47;;;13.94;78.64
72465;BME280;60471;52.150;4.508;2023-05-12T00:17:13;101525.09;;;13.93;79.13
72465;BME280;60471;52.150;4.508;2023-05-12T00:19:40;101524.25;;;13.92;78.99
72465;BME280;60471;52.150;4.508;2023-05-12T00:22:09;101515.78;;;13.67;79.88
72465;BME280;60471;52.150;4.508;2023-05-12T00:24:36;101528.19;;;13.67;79.99
72465;BME280;60471;52.150;4.508;2023-05-12T00:27:03;101521.25;;;13.64;79.46
72465;BME280;60471;52.150;4.508;2023-05-12T00:29:29;101514.72;;;13.71;79.44
72465;BME280;60471;52.150;4.508;2023-05-12T00:31:55;101515.97;;;13.81;79.55
72465;BME280;60471;52.150;4.508;2023-05-12T00:34:21;101515.50;;;13.73;79.57
72465;BME280;60471;52.150;4.508;2023-05-12T00:36:47;101517.97;;;13.59;79.50
72465;BME280;60471;52.150;4.508;2023-05-12T00:39:14;101514.06;;;13.66;79.05
72465;BME280;60471;52.150;4.508;2023-05-12T00:41:40;101519.44;;;13.64;78.81
72465;BME280;60471;52.150;4.508;2023-05-12T00:44:06;101514.47;;;13.58;79.36
72465;BME280;60471;52.150;4.508;2023-05-12T00:46:32;101516.38;;;13.55;79.59
72465;BME280;60471;52.150;4.508;2023-05-12T00:48:59;101517.13;;;13.58;79.32
72465;BME280;60471;52.150;4.508;2023-05-12T00:51:26;101515.31;;;13.59;79.98
72465;BME280;60471;52.150;4.508;2023-05-12T00:53:53;101509.00;;;13.61;79.86
72465;BME280;60471;52.150;4.508;2023-05-12T00:56:20;101505.25;;;13.66;78.88
72465;BME280;60471;52.150;4.508;2023-05-12T00:58:46;101508.56;;;13.71;78.36
72465;BME280;60471;52.150;4.508;2023-05-12T01:01:13;101515.56;;;13.72;78.36
72465;BME280;60471;52.150;4.508;2023-05-12T01:03:39;101518.19;;;13.54;79.12
72465;BME280;60471;52.150;4.508;2023-05-12T01:06:12;101506.66;;;13.73;79.29
72465;BME280;60471;52.150;4.508;2023-05-12T01:08:43;101505.81;;;13.72;78.92
72465;BME280;60471;52.150;4.508;2023-05-12T01:11:10;101507.69;;;13.70;78.78
72465;BME280;60471;52.150;4.508;2023-05-12T01:13:36;101500.81;;;13.66;78.69
72465;BME280;60471;52.150;4.508;2023-05-12T01:16:06;101508.22;;;13.77;78.12
72465;BME280;60471;52.150;4.508;2023-05-12T01:18:36;101507.81;;;13.67;78.45
72465;BME280;60471;52.150;4.508;2023-05-12T01:21:04;101510.88;;;13.59;78.64
72465;BME280;60471;52.150;4.508;2023-05-12T01:23:35;101502.47;;;13.69;78.72
72465;BME280;60471;52.150;4.508;2023-05-12T01:26:08;101500.41;;;13.56;78.65
72465;BME280;60471;52.150;4.508;2023-05-12T01:28:35;101500.66;;;13.52;78.74
72465;BME280;60471;52.150;4.508;2023-05-12T01:31:04;101504.00;;;13.55;78.62
72465;BME280;60471;52.150;4.508;2023-05-12T01:33:33;101504.16;;;13.52;78.46
72465;BME280;60471;52.150;4.508;2023-05-12T01:35:59;101501.09;;;13.43;79.50
72465;BME280;60471;52.150;4.508;2023-05-12T01:38:26;101508.97;;;13.44;79.18
72465;BME280;60471;52.150;4.508;2023-05-12T01:40:52;101505.84;;;13.36;79.70
72465;BME280;60471;52.150;4.508;2023-05-12T01:43:18;101498.75;;;13.37;79.41
72465;BME280;60471;52.150;4.508;2023-05-12T01:45:44;101506.22;;;13.46;79.64
72465;BME280;60471;52.150;4.508;2023-05-12T01:48:11;101501.34;;;13.38;78.91
72465;BME280;60471;52.150;4.508;2023-05-12T01:50:37;101501.53;;;13.33;79.84
72465;BME280;60471;52.150;4.508;2023-05-12T01:53:03;101489.78;;;13.39;79.68
72465;BME280;60471;52.150;4.508;2023-05-12T01:55:29;101503.53;;;13.47;79.46
72465;BME280;60471;52.150;4.508;2023-05-12T01:57:55;101493.63;;;13.51;79.36
72465;BME280;60471;52.150;4.508;2023-05-12T02:00:22;101501.16;;;13.41;79.95
72465;BME280;60471;52.150;4.508;2023-05-12T02:02:48;101494.56;;;13.50;79.47
72465;BME280;60471;52.150;4.508;2023-05-12T02:05:14;101489.09;;;13.36;80.27
72465;BME280;60471;52.150;4.508;2023-05-12T02:07:41;101495.41;;;13.50;79.57
72465;BME280;60471;52.150;4.508;2023-05-12T02:10:07;101499.69;;;13.53;79.31
72465;BME280;60471;52.150;4.508;2023-05-12T02:12:34;101496.03;;;13.55;79.40
72465;BME280;60471;52.150;4.508;2023-05-12T02:15:00;101491.53;;;13.57;79.51
72465;BME280;60471;52.150;4.508;2023-05-12T02:17:27;101496.88;;;13.39;79.46
72465;BME280;60471;52.150;4.508;2023-05-12T02:19:53;101492.97;;;13.28;80.19
72465;BME280;60471;52.150;4.508;2023-05-12T02:22:19;101488.28;;;13.33;79.93
72465;BME280;60471;52.150;4.508;2023-05-12T02:24:45;101488.06;;;13.38;80.08
72465;BME280;60471;52.150;4.508;2023-05-12T02:27:12;101488.16;;;13.37;80.01
72465;BME280;60471;52.150;4.508;2023-05-12T02:29:38;101484.31;;;13.42;80.07
72465;BME280;60471;52.150;4.508;2023-05-12T02:32:04;101487.38;;;13.52;79.50
72465;BME280;60471;52.150;4.508;2023-05-12T02:34:30;101485.97;;;13.45;79.30
72465;BME280;60471;52.150;4.508;2023-05-12T02:36:57;101482.00;;;13.53;79.58
72465;BME280;60471;52.150;4.508;2023-05-12T02:39:23;101468.59;;;13.56;79.56
72465;BME280;60471;52.150;4.508;2023-05-12T02:41:49;101472.97;;;13.57;79.32
72465;BME280;60471;52.150;4.508;2023-05-12T02:44:15;101479.75;;;13.63;78.78
72465;BME280;60471;52.150;4.508;2023-05-12T02:46:42;101476.53;;;13.56;79.01
72465;BME280;60471;52.150;4.508;2023-05-12T02:49:08;101477.56;;;13.71;78.79
72465;BME280;60471;52.150;4.508;2023-05-12T02:51:35;101479.66;;;13.64;78.84
72465;BME280;60471;52.150;4.508;2023-05-12T02:54:01;101476.16;;;13.64;78.92
72465;BME280;60471;52.150;4.508;2023-05-12T02:56:27;101468.00;;;13.69;79.15
72465;BME280;60471;52.150;4.508;2023-05-12T02:58:54;101476.56;;;13.74;78.70
72465;BME280;60471;52.150;4.508;2023-05-12T03:01:20;101468.44;;;13.77;78.79
72465;BME280;60471;52.150;4.508;2023-05-12T03:03:46;101469.91;;;13.65;79.07
72465;BME280;60471;52.150;4.508;2023-05-12T03:06:12;101465.00;;;13.75;78.98
72465;BME280;60471;52.150;4.508;2023-05-12T03:08:38;101455.66;;;13.68;79.33
72465;BME280;60471;52.150;4.508;2023-05-12T03:11:05;101453.84;;;13.85;79.36
72465;BME280;60471;52.150;4.508;2023-05-12T03:13:31;101458.06;;;13.72;79.17
72465;BME280;60471;52.150;4.508;2023-05-12T03:15:58;101455.66;;;13.68;79.40
72465;BME280;60471;52.150;4.508;2023-05-12T03:18:26;101464.94;;;13.59;79.98
72465;BME280;60471;52.150;4.508;2023-05-12T03:20:53;101455.09;;;13.78;79.65
72465;BME280;60471;52.150;4.508;2023-05-12T03:23:19;101451.22;;;13.68;80.32
72465;BME280;60471;52.150;4.508;2023-05-12T03:25:46;101452.00;;;13.70;79.96
72465;BME280;60471;52.150;4.508;2023-05-12T03:28:12;101441.84;;;13.61;80.85
72465;BME280;60471;52.150;4.508;2023-05-12T03:30:38;101443.50;;;13.46;81.25
72465;BME280;60471;52.150;4.508;2023-05-12T03:33:05;101436.44;;;13.45;81.19
72465;BME280;60471;52.150;4.508;2023-05-12T03:35:31;101436.84;;;13.38;81.67
72465;BME280;60471;52.150;4.508;2023-05-12T03:37:57;101437.16;;;13.31;82.07
72465;BME280;60471;52.150;4.508;2023-05-12T03:40:23;101446.81;;;13.32;82.36
72465;BME280;60471;52.150;4.508;2023-05-12T03:42:49;101433.03;;;13.26;82.58
72465;BME280;60471;52.150;4.508;2023-05-12T03:45:16;101442.31;;;13.16;82.25
72465;BME280;60471;52.150;4.508;2023-05-12T03:47:42;101441.47;;;13.15;82.62
72465;BME280;60471;52.150;4.508;2023-05-12T03:50:09;101438.00;;;12.96;83.69
72465;BME280;60471;52.150;4.508;2023-05-12T03:52:35;101436.38;;;13.11;82.79
72465;BME280;60471;52.150;4.508;2023-05-12T03:55:04;101440.41;;;13.00;83.52
72465;BME280;60471;52.150;4.508;2023-05-12T03:57:32;101440.31;;;13.02;83.35
72465;BME280;60471;52.150;4.508;2023-05-12T03:59:59;101429.94;;;13.16;82.89
72465;BME280;60471;52.150;4.508;2023-05-12T04:02:25;101430.88;;;13.15;82.92
72465;BME280;60471;52.150;4.508;2023-05-12T04:04:51;101424.59;;;12.99;83.07
72465;BME280;60471;52.150;4.508;2023-05-12T04:07:17;101432.78;;;12.94;83.85
72465;BME280;60471;52.150;4.508;2023-05-12T04:09:44;101434.66;;;13.10;83.51
72465;BME280;60471;52.150;4.508;2023-05-12T04:12:10;101430.66;;;13.01;84.09
72465;BME280;60471;52.150;4.508;2023-05-12T04:14:36;101433.25;;;13.02;83.11
72465;BME280;60471;52.150;4.508;2023-05-12T04:17:04;101428.84;;;12.84;84.29
72465;BME280;60471;52.150;4.508;2023-05-12T04:19:30;101435.19;;;12.99;83.38
72465;BME280;60471;52.150;4.508;2023-05-12T04:21:56;101431.19;;;12.90;84.01
72465;BME280;60471;52.150;4.508;2023-05-12T04:24:22;101434.91;;;13.05;83.58
72465;BME280;60471;52.150;4.508;2023-05-12T04:26:50;101425.84;;;13.09;82.84
72465;BME280;60471;52.150;4.508;2023-05-12T04:29:16;101433.72;;;13.11;83.38
72465;BME280;60471;52.150;4.508;2023-05-12T04:31:42;101434.13;;;13.03;83.73
72465;BME280;60471;52.150;4.508;2023-05-12T04:34:08;101430.72;;;13.18;83.30
72465;BME280;60471;52.150;4.508;2023-05-12T04:36:35;101426.78;;;13.27;83.19
72465;BME280;60471;52.150;4.508;2023-05-12T04:39:01;101436.78;;;13.03;84.11
72465;BME280;60471;52.150;4.508;2023-05-12T04:41:27;101432.09;;;13.08;84.25
72465;BME280;60471;52.150;4.508;2023-05-12T04:43:54;101426.00;;;13.06;84.13
72465;BME280;60471;52.150;4.508;2023-05-12T04:46:20;101433.81;;;13.09;84.53
72465;BME280;60471;52.150;4.508;2023-05-12T04:48:47;101429.56;;;13.24;83.78
72465;BME280;60471;52.150;4.508;2023-05-12T04:51:13;101433.09;;;13.24;83.73
72465;BME280;60471;52.150;4.508;2023-05-12T04:53:39;101437.47;;;13.06;84.29
72465;BME280;60471;52.150;4.508;2023-05-12T04:56:05;101440.44;;;13.18;84.58
72465;BME280;60471;52.150;4.508;2023-05-12T04:58:31;101437.47;;;13.25;84.24
72465;BME280;60471;52.150;4.508;2023-05-12T05:00:58;101438.16;;;13.29;84.09
72465;BME280;60471;52.150;4.508;2023-05-12T05:03:24;101445.72;;;13.19;84.47
72465;BME280;60471;52.150;4.508;2023-05-12T05:05:50;101436.91;;;13.19;84.36
72465;BME280;60471;52.150;4.508;2023-05-12T05:08:16;101449.69;;;13.45;84.10
72465;BME280;60471;52.150;4.508;2023-05-12T05:10:43;101444.03;;;13.36;83.73
72465;BME280;60471;52.150;4.508;2023-05-12T05:13:09;101456.44;;;13.35;84.41
72465;BME280;60471;52.150;4.508;2023-05-12T05:15:35;101454.69;;;13.34;84.62
72465;BME280;60471;52.150;4.508;2023-05-12T05:18:02;101461.81;;;13.51;84.57
72465;BME280;60471;52.150;4.508;2023-05-12T05:20:28;101459.25;;;13.49;84.24
72465;BME280;60471;52.150;4.508;2023-05-12T05:22:54;101455.13;;;13.61;84.25
72465;BME280;60471;52.150;4.508;2023-05-12T05:25:21;101461.56;;;13.55;83.95
72465;BME280;60471;52.150;4.508;2023-05-12T05:27:47;101463.75;;;13.47;84.50
72465;BME280;60471;52.150;4.508;2023-05-12T05:30:13;101467.66;;;13.40;85.00
72465;BME280;60471;52.150;4.508;2023-05-12T05:32:39;101464.63;;;13.48;85.14
72465;BME280;60471;52.150;4.508;2023-05-12T05:35:06;101462.75;;;13.50;85.09
72465;BME280;60471;52.150;4.508;2023-05-12T05:37:33;101466.94;;;13.54;85.03
72465;BME280;60471;52.150;4.508;2023-05-12T05:39:59;101473.44;;;13.66;85.30
72465;BME280;60471;52.150;4.508;2023-05-12T05:42:25;101476.50;;;13.58;85.34
72465;BME280;60471;52.150;4.508;2023-05-12T05:44:51;101476.94;;;13.66;85.10
72465;BME280;60471;52.150;4.508;2023-05-12T05:47:18;101479.13;;;13.75;85.16
72465;BME280;60471;52.150;4.508;2023-05-12T05:49:44;101477.81;;;13.84;84.59
72465;BME280;60471;52.150;4.508;2023-05-12T05:52:10;101480.84;;;13.76;84.88
72465;BME280;60471;52.150;4.508;2023-05-12T05:54:36;101480.53;;;13.82;85.30
72465;BME280;60471;52.150;4.508;2023-05-12T05:57:03;101489.28;;;13.84;85.13
72465;BME280;60471;52.150;4.508;2023-05-12T05:59:29;101485.06;;;13.80;84.85
72465;BME280;60471;52.150;4.508;2023-05-12T06:01:55;101480.94;;;13.92;84.95
72465;BME280;60471;52.150;4.508;2023-05-12T06:04:21;101491.13;;;14.00;84.87
72465;BME280;60471;52.150;4.508;2023-05-12T06:06:47;101487.94;;;13.93;84.42
72465;BME280;60471;52.150;4.508;2023-05-12T06:09:14;101484.06;;;13.83;85.51
72465;BME280;60471;52.150;4.508;2023-05-12T06:11:40;101489.41;;;14.16;84.23
72465;BME280;60471;52.150;4.508;2023-05-12T06:14:06;101490.91;;;14.04;84.53
72465;BME280;60471;52.150;4.508;2023-05-12T06:16:33;101491.94;;;14.02;84.38
72465;BME280;60471;52.150;4.508;2023-05-12T06:18:59;101494.53;;;14.19;84.75
72465;BME280;60471;52.150;4.508;2023-05-12T06:21:25;101493.78;;;14.17;84.48
72465;BME280;60471;52.150;4.508;2023-05-12T06:23:51;101502.38;;;14.22;83.84
72465;BME280;60471;52.150;4.508;2023-05-12T06:26:19;101508.16;;;14.13;83.98
72465;BME280;60471;52.150;4.508;2023-05-12T06:28:45;101510.63;;;14.16;84.21
72465;BME280;60471;52.150;4.508;2023-05-12T06:31:12;101503.78;;;14.12;84.49
72465;BME280;60471;52.150;4.508;2023-05-12T06:33:38;101491.38;;;14.12;84.30
72465;BME280;60471;52.150;4.508;2023-05-12T06:36:05;101499.09;;;14.17;84.80
72465;BME280;60471;52.150;4.508;2023-05-12T06:38:31;101492.53;;;14.24;85.03
72465;BME280;60471;52.150;4.508;2023-05-12T06:40:57;101495.19;;;14.24;84.03
72465;BME280;60471;52.150;4.508;2023-05-12T06:43:23;101502.97;;;14.44;84.15
72465;BME280;60471;52.150;4.508;2023-05-12T06:45:50;101500.97;;;14.65;83.48
72465;BME280;60471;52.150;4.508;2023-05-12T06:48:16;101503.56;;;14.98;81.85
72465;BME280;60471;52.150;4.508;2023-05-12T06:50:44;101504.50;;;14.97;81.44
72465;BME280;60471;52.150;4.508;2023-05-12T06:53:10;101506.03;;;15.17;81.59
72465;BME280;60471;52.150;4.508;2023-05-12T06:55:36;101505.44;;;15.28;80.68
72465;BME280;60471;52.150;4.508;2023-05-12T06:58:02;101510.03;;;15.40;80.19
72465;BME280;60471;52.150;4.508;2023-05-12T07:00:29;101509.97;;;15.42;80.37
72465;BME280;60471;52.150;4.508;2023-05-12T07:02:55;101514.91;;;15.79;78.87
72465;BME280;60471;52.150;4.508;2023-05-12T07:05:22;101510.78;;;16.04;78.05
72465;BME280;60471;52.150;4.508;2023-05-12T07:07:48;101513.72;;;15.99;77.37
72465;BME280;60471;52.150;4.508;2023-05-12T07:10:14;101510.75;;;15.89;78.07
72465;BME280;60471;52.150;4.508;2023-05-12T07:12:41;101516.84;;;16.06;77.63
72465;BME280;60471;52.150;4.508;2023-05-12T07:15:07;101516.16;;;15.88;78.40
72465;BME280;60471;52.150;4.508;2023-05-12T07:17:34;101509.22;;;16.30;76.83
72465;BME280;60471;52.150;4.508;2023-05-12T07:20:00;101514.25;;;16.20;76.94
72465;BME280;60471;52.150;4.508;2023-05-12T07:22:27;101509.97;;;16.32;76.39
72465;BME280;60471;52.150;4.508;2023-05-12T07:24:54;101517.50;;;16.39;75.94
72465;BME280;60471;52.150;4.508;2023-05-12T07:27:20;101517.31;;;16.42;76.90
72465;BME280;60471;52.150;4.508;2023-05-12T07:29:46;101520.53;;;16.47;75.71
72465;BME280;60471;52.150;4.508;2023-05-12T07:32:12;101525.50;;;16.82;75.30
72465;BME280;60471;52.150;4.508;2023-05-12T07:34:39;101517.50;;;16.39;75.74
72465;BME280;60471;52.150;4.508;2023-05-12T07:37:05;101525.00;;;17.04;74.15
72465;BME280;60471;52.150;4.508;2023-05-12T07:39:31;101528.25;;;17.63;72.12
72465;BME280;60471;52.150;4.508;2023-05-12T07:41:57;101529.16;;;18.16;69.50
72465;BME280;60471;52.150;4.508;2023-05-12T07:44:24;101530.41;;;18.23;68.29
72465;BME280;60471;52.150;4.508;2023-05-12T07:46:51;101534.38;;;18.17;68.21
72465;BME280;60471;52.150;4.508;2023-05-12T07:49:17;101536.41;;;18.52;68.70
72465;BME280;60471;52.150;4.508;2023-05-12T07:51:43;101536.22;;;18.30;69.14
72465;BME280;60471;52.150;4.508;2023-05-12T07:54:09;101538.53;;;18.21;68.18
72465;BME280;60471;52.150;4.508;2023-05-12T07:56:36;101538.91;;;18.80;65.66
72465;BME280;60471;52.150;4.508;2023-05-12T07:59:02;101547.31;;;18.62;66.86
72465;BME280;60471;52.150;4.508;2023-05-12T08:01:28;101535.56;;;19.26;64.86
72465;BME280;60471;52.150;4.508;2023-05-12T08:03:55;101547.78;;;18.68;67.20
72465;BME280;60471;52.150;4.508;2023-05-12T08:06:21;101550.25;;;18.71;65.12
72465;BME280;60471;52.150;4.508;2023-05-12T08:08:47;101551.50;;;17.75;68.69
72465;BME280;60471;52.150;4.508;2023-05-12T08:11:14;101546.69;;;18.33;66.98
72465;BME280;60471;52.150;4.508;2023-05-12T08:13:40;101544.81;;;19.22;64.22
72465;BME280;60471;52.150;4.508;2023-05-12T08:16:06;101554.44;;;19.49;62.82
72465;BME280;60471;52.150;4.508;2023-05-12T08:18:33;101549.91;;;19.25;62.78
72465;BME280;60471;52.150;4.508;2023-05-12T08:20:59;101555.41;;;19.48;62.44
72465;BME280;60471;52.150;4.508;2023-05-12T08:23:25;101551.72;;;18.63;64.32
72465;BME280;60471;52.150;4.508;2023-05-12T08:25:51;101558.31;;;19.08;62.55
72465;BME280;60471;52.150;4.508;2023-05-12T08:28:17;101554.06;;;18.93;63.47
72465;BME280;60471;52.150;4.508;2023-05-12T08:30:44;101546.03;;;18.16;66.19
72465;BME280;60471;52.150;4.508;2023-05-12T08:33:11;101555.22;;;18.63;64.46
72465;BME280;60471;52.150;4.508;2023-05-12T08:35:37;101551.16;;;18.45;65.80
72465;BME280;60471;52.150;4.508;2023-05-12T08:38:04;101556.72;;;18.42;66.31
72465;BME280;60471;52.150;4.508;2023-05-12T08:40:52;101560.28;;;18.93;63.40
72465;BME280;60471;52.150;4.508;2023-05-12T08:43:41;101559.00;;;19.35;63.43
72465;BME280;60471;52.150;4.508;2023-05-12T08:46:11;101568.41;;;18.92;64.59
72465;BME280;60471;52.150;4.508;2023-05-12T08:48:39;101567.13;;;19.71;61.72
72465;BME280;60471;52.150;4.508;2023-05-12T08:51:08;101568.41;;;19.89;61.98
72465;BME280;60471;52.150;4.508;2023-05-12T08:53:39;101572.81;;;19.90;61.21
72465;BME280;60471;52.150;4.508;2023-05-12T08:56:08;101565.38;;;20.40;60.04
72465;BME280;60471;52.150;4.508;2023-05-12T08:58:36;101569.09;;;20.72;59.09
72465;BME280;60471;52.150;4.508;2023-05-12T09:01:04;101565.56;;;21.39;56.34
72465;BME280;60471;52.150;4.508;2023-05-12T09:03:32;101573.03;;;21.02;56.00
72465;BME280;60471;52.150;4.508;2023-05-12T09:05:59;101572.16;;;21.12;56.65
72465;BME280;60471;52.150;4.508;2023-05-12T09:08:28;101566.38;;;21.62;55.22
72465;BME280;60471;52.150;4.508;2023-05-12T09:11:00;101570.94;;;20.61;58.99
72465;BME280;60471;52.150;4.508;2023-05-12T09:14:02;101569.09;;;20.61;58.83
72465;BME280;60471;52.150;4.508;2023-05-12T09:16:38;101571.41;;;21.44;56.07
72465;BME280;60471;52.150;4.508;2023-05-12T09:19:06;101576.50;;;21.58;55.63
72465;BME280;60471;52.150;4.508;2023-05-12T09:21:32;101568.22;;;21.50;55.94
72465;BME280;60471;52.150;4.508;2023-05-12T09:24:01;101579.88;;;21.06;56.31
72465;BME280;60471;52.150;4.508;2023-05-12T09:26:46;101577.66;;;21.11;56.08
72465;BME280;60471;52.150;4.508;2023-05-12T09:29:14;101572.13;;;21.24;56.25
72465;BME280;60471;52.150;4.508;2023-05-12T09:31:51;101584.59;;;21.36;55.76
72465;BME280;60471;52.150;4.508;2023-05-12T09:34:18;101576.44;;;21.04;57.41
72465;BME280;60471;52.150;4.508;2023-05-12T09:37:01;101580.47;;;21.09;57.24
72465;BME280;60471;52.150;4.508;2023-05-12T09:39:30;101575.44;;;21.05;56.96
72465;BME280;60471;52.150;4.508;2023-05-12T09:41:57;101579.50;;;20.88;57.62
72465;BME280;60471;52.150;4.508;2023-05-12T09:44:24;101589.75;;;21.39;56.26
72465;BME280;60471;52.150;4.508;2023-05-12T09:46:51;101585.94;;;22.38;54.51
72465;BME280;60471;52.150;4.508;2023-05-12T09:49:18;101589.34;;;22.19;55.14
72465;BME280;60471;52.150;4.508;2023-05-12T09:51:45;101591.47;;;22.67;52.70
72465;BME280;60471;52.150;4.508;2023-05-12T09:54:12;101589.19;;;23.13;50.58
72465;BME280;60471;52.150;4.508;2023-05-12T09:56:48;101582.56;;;22.66;51.79
72465;BME280;60471;52.150;4.508;2023-05-12T09:59:17;101584.19;;;22.48;53.01
72465;BME280;60471;52.150;4.508;2023-05-12T10:01:46;101595.06;;;22.98;51.32
72465;BME280;60471;52.150;4.508;2023-05-12T10:04:13;101589.53;;;23.39;51.71
72465;BME280;60471;52.150;4.508;2023-05-12T10:06:40;101595.78;;;23.00;52.15
72465;BME280;60471;52.150;4.508;2023-05-12T10:11:53;101595.56;;;22.82;51.83
72465;BME280;60471;52.150;4.508;2023-05-12T10:14:21;101591.41;;;22.26;53.73
72465;BME280;60471;52.150;4.508;2023-05-12T10:16:49;101600.75;;;22.74;52.65
72465;BME280;60471;52.150;4.508;2023-05-12T10:19:16;101593.09;;;22.07;54.38
72465;BME280;60471;52.150;4.508;2023-05-12T10:21:43;101593.47;;;22.44;53.13
72465;BME280;60471;52.150;4.508;2023-05-12T10:24:14;101597.72;;;22.88;52.29
72465;BME280;60471;52.150;4.508;2023-05-12T10:26:42;101603.47;;;23.45;50.20
72465;BME280;60471;52.150;4.508;2023-05-12T10:29:09;101607.94;;;24.04;49.77
72465;BME280;60471;52.150;4.508;2023-05-12T10:31:37;101599.56;;;24.16;49.75
72465;BME280;60471;52.150;4.508;2023-05-12T10:34:04;101590.50;;;24.37;48.34
72465;BME280;60471;52.150;4.508;2023-05-12T10:36:42;101595.66;;;25.87;45.60
72465;BME280;60471;52.150;4.508;2023-05-12T10:39:12;101596.25;;;25.35;45.64
72465;BME280;60471;52.150;4.508;2023-05-12T10:41:40;101587.38;;;25.70;46.12
72465;BME280;60471;52.150;4.508;2023-05-12T10:44:10;101591.63;;;27.55;41.42
72465;BME280;60471;52.150;4.508;2023-05-12T10:46:36;101590.44;;;27.49;41.15
72465;BME280;60471;52.150;4.508;2023-05-12T10:49:07;101591.00;;;26.58;42.25
72465;BME280;60471;52.150;4.508;2023-05-12T10:54:11;101596.50;;;25.87;44.12
72465;BME280;60471;52.150;4.508;2023-05-12T10:56:43;101587.97;;;25.64;44.40
72465;BME280;60471;52.150;4.508;2023-05-12T10:59:14;101590.69;;;27.88;40.80
72465;BME280;60471;52.150;4.508;2023-05-12T11:02:02;101595.72;;;26.56;42.54
72465;BME280;60471;52.150;4.508;2023-05-12T11:04:38;101582.22;;;25.77;43.74
72465;BME280;60471;52.150;4.508;2023-05-12T11:07:19;101585.22;;;25.74;43.48
72465;BME280;60471;52.150;4.508;2023-05-12T11:09:52;101588.97;;;27.21;41.33
72465;BME280;60471;52.150;4.508;2023-05-12T11:12:20;101582.63;;;27.38;40.48
72465;BME280;60471;52.150;4.508;2023-05-12T11:14:47;101591.22;;;27.92;39.36
72465;BME280;60471;52.150;4.508;2023-05-12T11:17:14;101593.41;;;28.62;39.21
72465;BME280;60471;52.150;4.508;2023-05-12T11:19:44;101585.81;;;29.43;36.36
72465;BME280;60471;52.150;4.508;2023-05-12T11:22:17;101592.84;;;29.30;37.06
72465;BME280;60471;52.150;4.508;2023-05-12T11:24:45;101598.19;;;28.43;38.80
72465;BME280;60471;52.150;4.508;2023-05-12T11:27:13;101591.31;;;29.35;37.44
72465;BME280;60471;52.150;4.508;2023-05-12T11:29:42;101589.97;;;30.98;34.44
72465;BME280;60471;52.150;4.508;2023-05-12T11:32:14;101594.38;;;30.70;34.80
72465;BME280;60471;52.150;4.508;2023-05-12T11:34:40;101594.03;;;29.89;35.33
72465;BME280;60471;52.150;4.508;2023-05-12T11:37:06;101594.88;;;29.90;36.05
72465;BME280;60471;52.150;4.508;2023-05-12T11:39:32;101593.38;;;30.33;34.85
72465;BME280;60471;52.150;4.508;2023-05-12T11:42:06;101588.34;;;31.04;34.10
72465;BME280;60471;52.150;4.508;2023-05-12T11:44:35;101596.69;;;30.58;34.80
72465;BME280;60471;52.150;4.508;2023-05-12T11:47:14;101592.94;;;31.84;32.68
72465;BME280;60471;52.150;4.508;2023-05-12T11:49:59;101600.38;;;31.09;33.46
72465;BME280;60471;52.150;4.508;2023-05-12T11:52:28;101593.63;;;30.91;33.55
72465;BME280;60471;52.150;4.508;2023-05-12T11:54:58;101598.84;;;31.51;33.24
72465;BME280;60471;52.150;4.508;2023-05-12T11:57:26;101588.44;;;31.97;31.86
72465;BME280;60471;52.150;4.508;2023-05-12T12:00:03;101588.22;;;33.72;28.81
72465;BME280;60471;52.150;4.508;2023-05-12T12:02:32;101585.22;;;35.06;27.16
72465;BME280;60471;52.150;4.508;2023-05-12T12:05:00;101594.09;;;31.96;31.47
72465;BME280;60471;52.150;4.508;2023-05-12T12:07:31;101601.63;;;32.15;32.25
72465;BME280;60471;52.150;4.508;2023-05-12T12:10:10;101594.50;;;30.39;33.33
72465;BME280;60471;52.150;4.508;2023-05-12T12:12:40;101602.69;;;29.00;36.20
72465;BME280;60471;52.150;4.508;2023-05-12T12:15:08;101608.16;;;27.27;39.46
72465;BME280;60471;52.150;4.508;2023-05-12T12:17:35;101612.97;;;25.21;43.47
72465;BME280;60471;52.150;4.508;2023-05-12T12:20:02;101606.53;;;23.99;46.91
72465;BME280;60471;52.150;4.508;2023-05-12T12:22:28;101617.44;;;23.79;48.03
72465;BME280;60471;52.150;4.508;2023-05-12T12:24:59;101619.53;;;23.16;49.65
72465;BME280;60471;52.150;4.508;2023-05-12T12:27:26;101622.69;;;23.80;47.58
72465;BME280;60471;52.150;4.508;2023-05-12T12:29:52;101613.41;;;25.17;45.37
72465;BME280;60471;52.150;4.508;2023-05-12T12:32:18;101609.16;;;27.77;39.76
72465;BME280;60471;52.150;4.508;2023-05-12T12:34:44;101619.56;;;28.38;38.07
72465;BME280;60471;52.150;4.508;2023-05-12T12:37:11;101620.69;;;28.84;36.88
72465;BME280;60471;52.150;4.508;2023-05-12T12:39:37;101605.84;;;30.65;34.73
72465;BME280;60471;52.150;4.508;2023-05-12T12:42:04;101609.03;;;32.77;31.22
72465;BME280;60471;52.150;4.508;2023-05-12T12:44:30;101609.19;;;32.13;31.52
72465;BME280;60471;52.150;4.508;2023-05-12T12:46:56;101607.81;;;31.30;32.65
72465;BME280;60471;52.150;4.508;2023-05-12T12:49:22;101608.78;;;31.23;32.87
72465;BME280;60471;52.150;4.508;2023-05-12T12:51:49;101617.41;;;31.41;33.67
72465;BME280;60471;52.150;4.508;2023-05-12T12:54:15;101613.59;;;31.57;32.91
72465;BME280;60471;52.150;4.508;2023-05-12T12:56:42;101610.66;;;32.16;31.84